sensor_id;sensor_type;location;lat;lon;timestamp;P1;durP1;ratioP1;P2;durP2;ratioP2
30233;SDS011;17046;52.074;4.748;2022-08-05T00:02:06;11.10;;;5.85;;
30233;SDS011;17046;52.074;4.748;2022-08-05T00:04:32;9.82;;;5.97;;
30233;SDS011;17046;52.074;4.748;2022-08-05T00:06:58;12.00;;;5.45;;
30233;SDS011;17046;52.074;4.748;2022-08-05T00:09:23;12.05;;;6.50;;
30233;SDS011;17046;52.074;4.748;2022-08-05T00:11:49;10.82;;;5.50;;
30233;SDS011;17046;52.074;4.748;2022-08-05T00:14:15;14.30;;;6.10;;
30233;SDS011;17046;52.074;4.748;2022-08-05T00:16:43;10.82;;;4.93;;
30233;SDS011;17046;52.074;4.748;2022-08-05T00:19:09;12.45;;;4.97;;
30233;SDS011;17046;52.074;4.748;2022-08-05T00:21:34;12.07;;;5.63;;
30233;SDS011;17046;52.074;4.748;2022-08-05T00:24:00;9.60;;;5.03;;
30233;SDS011;17046;52.074;4.748;2022-08-05T00:26:25;11.68;;;5.55;;
30233;SDS011;17046;52.074;4.748;2022-08-05T00:28:51;8.48;;;4.25;;
30233;SDS011;17046;52.074;4.748;2022-08-05T00:31:17;10.52;;;4.55;;
30233;SDS011;17046;52.074;4.748;2022-08-05T00:33:42;5.68;;;4.35;;
30233;SDS011;17046;52.074;4.748;2022-08-05T00:36:08;11.15;;;5.80;;
30233;SDS011;17046;52.074;4.748;2022-08-05T00:38:34;10.55;;;5.72;;
30233;SDS011;17046;52.074;4.748;2022-08-05T00:40:59;8.52;;;5.40;;
30233;SDS011;17046;52.074;4.748;2022-08-05T00:43:25;10.55;;;4.47;;
30233;SDS011;17046;52.074;4.748;2022-08-05T00:45:51;10.55;;;4.72;;
30233;SDS011;17046;52.074;4.748;2022-08-05T00:48:18;11.57;;;4.15;;
30233;SDS011;17046;52.074;4.748;2022-08-05T00:50:46;9.70;;;4.05;;
30233;SDS011;17046;52.074;4.748;2022-08-05T00:53:14;10.50;;;3.83;;
30233;SDS011;17046;52.074;4.748;2022-08-05T00:55:41;7.63;;;4.18;;
30233;SDS011;17046;52.074;4.748;2022-08-05T00:58:08;7.53;;;3.67;;
30233;SDS011;17046;52.074;4.748;2022-08-05T01:00:38;7.72;;;3.30;;
30233;SDS011;17046;52.074;4.748;2022-08-05T01:03:04;6.38;;;3.17;;
30233;SDS011;17046;52.074;4.748;2022-08-05T01:05:30;9.20;;;2.95;;
30233;SDS011;17046;52.074;4.748;2022-08-05T01:07:56;9.32;;;3.45;;
30233;SDS011;17046;52.074;4.748;2022-08-05T01:10:24;7.97;;;3.40;;
30233;SDS011;17046;52.074;4.748;2022-08-05T01:12:55;6.68;;;3.38;;
30233;SDS011;17046;52.074;4.748;2022-08-05T01:15:26;8.80;;;3.83;;
30233;SDS011;17046;52.074;4.748;2022-08-05T01:17:58;7.90;;;4.10;;
30233;SDS011;17046;52.074;4.748;2022-08-05T01:23:43;10.07;;;5.00;;
30233;SDS011;17046;52.074;4.748;2022-08-05T01:26:29;8.35;;;5.10;;
30233;SDS011;17046;52.074;4.748;2022-08-05T01:29:16;10.15;;;5.68;;
30233;SDS011;17046;52.074;4.748;2022-08-05T01:31:53;13.10;;;5.80;;
30233;SDS011;17046;52.074;4.748;2022-08-05T01:34:40;10.88;;;6.22;;
30233;SDS011;17046;52.074;4.748;2022-08-05T01:37:17;11.18;;;5.78;;
30233;SDS011;17046;52.074;4.748;2022-08-05T01:39:47;10.20;;;6.40;;
30233;SDS011;17046;52.074;4.748;2022-08-05T01:42:16;8.90;;;5.30;;
30233;SDS011;17046;52.074;4.748;2022-08-05T01:44:44;10.38;;;5.30;;
30233;SDS011;17046;52.074;4.748;2022-08-05T01:47:11;10.65;;;5.47;;
30233;SDS011;17046;52.074;4.748;2022-08-05T01:49:40;9.55;;;5.43;;
30233;SDS011;17046;52.074;4.748;2022-08-05T01:52:07;9.00;;;5.47;;
30233;SDS011;17046;52.074;4.748;2022-08-05T01:54:37;10.38;;;4.93;;
30233;SDS011;17046;52.074;4.748;2022-08-05T01:57:05;10.60;;;5.43;;
30233;SDS011;17046;52.074;4.748;2022-08-05T01:59:33;10.70;;;5.65;;
30233;SDS011;17046;52.074;4.748;2022-08-05T02:02:00;11.15;;;5.60;;
30233;SDS011;17046;52.074;4.748;2022-08-05T02:04:28;9.00;;;5.55;;
30233;SDS011;17046;52.074;4.748;2022-08-05T02:06:55;11.93;;;5.78;;
30233;SDS011;17046;52.074;4.748;2022-08-05T02:09:21;8.38;;;5.55;;
30233;SDS011;17046;52.074;4.748;2022-08-05T02:14:31;7.85;;;4.93;;
30233;SDS011;17046;52.074;4.748;2022-08-05T02:17:10;8.60;;;5.20;;
30233;SDS011;17046;52.074;4.748;2022-08-05T02:19:58;10.43;;;4.97;;
30233;SDS011;17046;52.074;4.748;2022-08-05T02:22:29;9.05;;;4.65;;
30233;SDS011;17046;52.074;4.748;2022-08-05T02:25:21;9.98;;;5.13;;
30233;SDS011;17046;52.074;4.748;2022-08-05T02:27:49;7.80;;;4.70;;
30233;SDS011;17046;52.074;4.748;2022-08-05T02:30:16;10.10;;;4.32;;
30233;SDS011;17046;52.074;4.748;2022-08-05T02:32:44;8.45;;;4.15;;
30233;SDS011;17046;52.074;4.748;2022-08-05T02:35:14;8.15;;;4.47;;
30233;SDS011;17046;52.074;4.748;2022-08-05T02:37:43;11.25;;;5.07;;
30233;SDS011;17046;52.074;4.748;2022-08-05T02:40:10;10.07;;;4.85;;
30233;SDS011;17046;52.074;4.748;2022-08-05T02:42:37;11.35;;;5.35;;
30233;SDS011;17046;52.074;4.748;2022-08-05T02:45:03;9.50;;;4.70;;
30233;SDS011;17046;52.074;4.748;2022-08-05T02:47:31;7.72;;;4.20;;
30233;SDS011;17046;52.074;4.748;2022-08-05T02:49:59;8.52;;;4.40;;
30233;SDS011;17046;52.074;4.748;2022-08-05T02:52:25;7.90;;;4.60;;
30233;SDS011;17046;52.074;4.748;2022-08-05T02:54:52;11.05;;;5.20;;
30233;SDS011;17046;52.074;4.748;2022-08-05T02:57:19;7.60;;;4.80;;
30233;SDS011;17046;52.074;4.748;2022-08-05T02:59:47;9.38;;;4.80;;
30233;SDS011;17046;52.074;4.748;2022-08-05T03:02:14;10.88;;;5.05;;
30233;SDS011;17046;52.074;4.748;2022-08-05T03:04:44;7.55;;;4.88;;
30233;SDS011;17046;52.074;4.748;2022-08-05T03:07:11;13.82;;;5.65;;
30233;SDS011;17046;52.074;4.748;2022-08-05T03:09:37;8.10;;;4.88;;
30233;SDS011;17046;52.074;4.748;2022-08-05T03:12:06;10.00;;;5.00;;
30233;SDS011;17046;52.074;4.748;2022-08-05T03:14:32;9.07;;;5.03;;
30233;SDS011;17046;52.074;4.748;2022-08-05T03:16:58;9.55;;;4.75;;
30233;SDS011;17046;52.074;4.748;2022-08-05T03:19:23;13.50;;;4.82;;
30233;SDS011;17046;52.074;4.748;2022-08-05T03:21:49;7.75;;;4.75;;
30233;SDS011;17046;52.074;4.748;2022-08-05T03:24:15;9.63;;;4.72;;
30233;SDS011;17046;52.074;4.748;2022-08-05T03:26:42;7.93;;;4.20;;
30233;SDS011;17046;52.074;4.748;2022-08-05T03:29:08;8.85;;;4.10;;
30233;SDS011;17046;52.074;4.748;2022-08-05T03:31:33;7.97;;;4.32;;
30233;SDS011;17046;52.074;4.748;2022-08-05T03:33:59;8.77;;;4.05;;
30233;SDS011;17046;52.074;4.748;2022-08-05T03:36:25;7.47;;;3.85;;
30233;SDS011;17046;52.074;4.748;2022-08-05T03:38:51;7.57;;;3.80;;
30233;SDS011;17046;52.074;4.748;2022-08-05T03:41:17;8.40;;;3.90;;
30233;SDS011;17046;52.074;4.748;2022-08-05T03:43:43;5.63;;;3.83;;
30233;SDS011;17046;52.074;4.748;2022-08-05T03:46:08;9.30;;;4.03;;
30233;SDS011;17046;52.074;4.748;2022-08-05T03:48:34;9.07;;;4.38;;
30233;SDS011;17046;52.074;4.748;2022-08-05T03:51:02;8.27;;;4.07;;
30233;SDS011;17046;52.074;4.748;2022-08-05T03:53:54;6.80;;;3.30;;
30233;SDS011;17046;52.074;4.748;2022-08-05T03:56:25;6.90;;;3.53;;
30233;SDS011;17046;52.074;4.748;2022-08-05T03:58:56;7.55;;;3.08;;
30233;SDS011;17046;52.074;4.748;2022-08-05T04:01:25;6.30;;;3.05;;
30233;SDS011;17046;52.074;4.748;2022-08-05T04:03:54;9.27;;;3.35;;
30233;SDS011;17046;52.074;4.748;2022-08-05T04:06:20;5.43;;;3.00;;
30233;SDS011;17046;52.074;4.748;2022-08-05T04:08:47;9.55;;;3.40;;
30233;SDS011;17046;52.074;4.748;2022-08-05T04:11:13;8.02;;;3.63;;
30233;SDS011;17046;52.074;4.748;2022-08-05T04:13:40;8.02;;;3.55;;
30233;SDS011;17046;52.074;4.748;2022-08-05T04:16:06;5.90;;;3.58;;
30233;SDS011;17046;52.074;4.748;2022-08-05T04:18:33;4.75;;;3.28;;
30233;SDS011;17046;52.074;4.748;2022-08-05T04:20:59;7.00;;;3.83;;
30233;SDS011;17046;52.074;4.748;2022-08-05T04:23:25;7.20;;;3.85;;
30233;SDS011;17046;52.074;4.748;2022-08-05T04:25:53;6.85;;;3.88;;
30233;SDS011;17046;52.074;4.748;2022-08-05T04:28:19;5.60;;;3.85;;
30233;SDS011;17046;52.074;4.748;2022-08-05T04:30:45;8.10;;;3.60;;
30233;SDS011;17046;52.074;4.748;2022-08-05T04:33:11;5.55;;;3.50;;
30233;SDS011;17046;52.074;4.748;2022-08-05T04:35:37;6.55;;;4.10;;
30233;SDS011;17046;52.074;4.748;2022-08-05T04:38:03;5.72;;;3.25;;
30233;SDS011;17046;52.074;4.748;2022-08-05T04:40:31;6.70;;;3.70;;
30233;SDS011;17046;52.074;4.748;2022-08-05T04:43:01;5.85;;;3.58;;
30233;SDS011;17046;52.074;4.748;2022-08-05T04:45:27;5.13;;;3.70;;
30233;SDS011;17046;52.074;4.748;2022-08-05T04:47:53;7.05;;;3.97;;
30233;SDS011;17046;52.074;4.748;2022-08-05T04:50:19;6.50;;;3.75;;
30233;SDS011;17046;52.074;4.748;2022-08-05T04:52:44;6.50;;;3.67;;
30233;SDS011;17046;52.074;4.748;2022-08-05T04:55:10;6.70;;;3.80;;
30233;SDS011;17046;52.074;4.748;2022-08-05T04:57:36;6.07;;;3.53;;
30233;SDS011;17046;52.074;4.748;2022-08-05T05:00:04;7.35;;;3.50;;
30233;SDS011;17046;52.074;4.748;2022-08-05T05:02:30;6.38;;;3.42;;
30233;SDS011;17046;52.074;4.748;2022-08-05T05:04:56;6.57;;;3.22;;
30233;SDS011;17046;52.074;4.748;2022-08-05T05:07:21;5.65;;;3.90;;
30233;SDS011;17046;52.074;4.748;2022-08-05T05:09:47;8.70;;;3.70;;
30233;SDS011;17046;52.074;4.748;2022-08-05T05:12:12;7.85;;;3.60;;
30233;SDS011;17046;52.074;4.748;2022-08-05T05:14:38;5.07;;;3.15;;
30233;SDS011;17046;52.074;4.748;2022-08-05T05:17:04;6.90;;;3.00;;
30233;SDS011;17046;52.074;4.748;2022-08-05T05:19:29;4.22;;;2.47;;
30233;SDS011;17046;52.074;4.748;2022-08-05T05:21:55;6.40;;;2.58;;
30233;SDS011;17046;52.074;4.748;2022-08-05T05:24:20;6.57;;;2.17;;
30233;SDS011;17046;52.074;4.748;2022-08-05T05:26:46;5.78;;;2.03;;
30233;SDS011;17046;52.074;4.748;2022-08-05T05:29:12;2.83;;;1.75;;
30233;SDS011;17046;52.074;4.748;2022-08-05T05:31:38;5.95;;;2.20;;
30233;SDS011;17046;52.074;4.748;2022-08-05T05:34:03;7.80;;;2.35;;
30233;SDS011;17046;52.074;4.748;2022-08-05T05:36:29;4.30;;;1.80;;
30233;SDS011;17046;52.074;4.748;2022-08-05T05:38:55;3.75;;;1.90;;
30233;SDS011;17046;52.074;4.748;2022-08-05T05:41:21;4.78;;;1.60;;
30233;SDS011;17046;52.074;4.748;2022-08-05T05:43:47;4.47;;;1.50;;
30233;SDS011;17046;52.074;4.748;2022-08-05T05:46:12;4.18;;;1.35;;
30233;SDS011;17046;52.074;4.748;2022-08-05T05:48:38;2.97;;;1.67;;
30233;SDS011;17046;52.074;4.748;2022-08-05T05:51:05;2.92;;;1.77;;
30233;SDS011;17046;52.074;4.748;2022-08-05T05:53:32;4.90;;;1.83;;
30233;SDS011;17046;52.074;4.748;2022-08-05T05:55:57;4.60;;;1.55;;
30233;SDS011;17046;52.074;4.748;2022-08-05T05:58:23;3.53;;;1.50;;
30233;SDS011;17046;52.074;4.748;2022-08-05T06:00:48;5.78;;;1.65;;
30233;SDS011;17046;52.074;4.748;2022-08-05T06:03:14;4.38;;;1.88;;
30233;SDS011;17046;52.074;4.748;2022-08-05T06:05:39;3.78;;;1.30;;
30233;SDS011;17046;52.074;4.748;2022-08-05T06:08:05;2.72;;;1.02;;
30233;SDS011;17046;52.074;4.748;2022-08-05T06:10:31;6.40;;;1.60;;
30233;SDS011;17046;52.074;4.748;2022-08-05T06:12:57;4.20;;;1.50;;
30233;SDS011;17046;52.074;4.748;2022-08-05T06:15:23;3.65;;;1.20;;
30233;SDS011;17046;52.074;4.748;2022-08-05T06:17:49;2.70;;;1.17;;
30233;SDS011;17046;52.074;4.748;2022-08-05T06:20:14;2.53;;;1.10;;
30233;SDS011;17046;52.074;4.748;2022-08-05T06:22:40;2.80;;;0.95;;
30233;SDS011;17046;52.074;4.748;2022-08-05T06:25:05;2.63;;;0.90;;
30233;SDS011;17046;52.074;4.748;2022-08-05T06:27:32;3.17;;;0.80;;
30233;SDS011;17046;52.074;4.748;2022-08-05T06:29:58;2.67;;;0.80;;
30233;SDS011;17046;52.074;4.748;2022-08-05T06:32:24;2.22;;;0.93;;
30233;SDS011;17046;52.074;4.748;2022-08-05T06:34:49;3.33;;;0.90;;
30233;SDS011;17046;52.074;4.748;2022-08-05T06:37:15;4.57;;;1.00;;
30233;SDS011;17046;52.074;4.748;2022-08-05T06:39:41;3.78;;;0.88;;
30233;SDS011;17046;52.074;4.748;2022-08-05T06:42:07;1.40;;;0.85;;
30233;SDS011;17046;52.074;4.748;2022-08-05T06:44:32;3.30;;;0.90;;
30233;SDS011;17046;52.074;4.748;2022-08-05T06:46:58;1.65;;;0.60;;
30233;SDS011;17046;52.074;4.748;2022-08-05T06:49:23;4.07;;;0.90;;
30233;SDS011;17046;52.074;4.748;2022-08-05T06:51:49;3.65;;;1.10;;
30233;SDS011;17046;52.074;4.748;2022-08-05T06:54:15;3.13;;;0.90;;
30233;SDS011;17046;52.074;4.748;2022-08-05T06:56:40;4.10;;;0.93;;
30233;SDS011;17046;52.074;4.748;2022-08-05T06:59:06;4.53;;;1.13;;
30233;SDS011;17046;52.074;4.748;2022-08-05T07:01:32;3.45;;;0.90;;
30233;SDS011;17046;52.074;4.748;2022-08-05T07:03:58;3.63;;;0.75;;
30233;SDS011;17046;52.074;4.748;2022-08-05T07:06:24;3.65;;;0.80;;
30233;SDS011;17046;52.074;4.748;2022-08-05T07:08:50;2.70;;;0.57;;
30233;SDS011;17046;52.074;4.748;2022-08-05T07:11:15;2.80;;;0.85;;
30233;SDS011;17046;52.074;4.748;2022-08-05T07:13:41;3.90;;;0.80;;
30233;SDS011;17046;52.074;4.748;2022-08-05T07:16:26;2.55;;;0.77;;
30233;SDS011;17046;52.074;4.748;2022-08-05T07:19:11;1.88;;;0.50;;
30233;SDS011;17046;52.074;4.748;2022-08-05T07:21:37;3.10;;;0.60;;
30233;SDS011;17046;52.074;4.748;2022-08-05T07:24:02;2.13;;;0.60;;
30233;SDS011;17046;52.074;4.748;2022-08-05T07:26:28;2.40;;;0.70;;
30233;SDS011;17046;52.074;4.748;2022-08-05T07:28:54;2.85;;;0.50;;
30233;SDS011;17046;52.074;4.748;2022-08-05T07:31:20;3.63;;;0.80;;
30233;SDS011;17046;52.074;4.748;2022-08-05T07:33:46;1.60;;;0.45;;
30233;SDS011;17046;52.074;4.748;2022-08-05T07:36:11;3.35;;;0.40;;
30233;SDS011;17046;52.074;4.748;2022-08-05T07:38:38;1.35;;;0.40;;
30233;SDS011;17046;52.074;4.748;2022-08-05T07:41:05;1.63;;;0.47;;
30233;SDS011;17046;52.074;4.748;2022-08-05T07:43:32;2.42;;;0.50;;
30233;SDS011;17046;52.074;4.748;2022-08-05T07:45:57;2.35;;;0.70;;
30233;SDS011;17046;52.074;4.748;2022-08-05T07:48:23;2.80;;;0.60;;
30233;SDS011;17046;52.074;4.748;2022-08-05T07:50:48;3.42;;;0.63;;
30233;SDS011;17046;52.074;4.748;2022-08-05T07:53:14;3.00;;;0.50;;
30233;SDS011;17046;52.074;4.748;2022-08-05T07:55:39;2.65;;;0.60;;
30233;SDS011;17046;52.074;4.748;2022-08-05T07:58:05;1.75;;;0.65;;
30233;SDS011;17046;52.074;4.748;2022-08-05T08:00:31;3.47;;;0.70;;
30233;SDS011;17046;52.074;4.748;2022-08-05T08:02:56;1.67;;;0.70;;
30233;SDS011;17046;52.074;4.748;2022-08-05T08:05:22;3.08;;;0.70;;
30233;SDS011;17046;52.074;4.748;2022-08-05T08:07:47;2.10;;;0.80;;
30233;SDS011;17046;52.074;4.748;2022-08-05T08:10:13;4.25;;;0.65;;
30233;SDS011;17046;52.074;4.748;2022-08-05T08:12:39;3.83;;;0.90;;
30233;SDS011;17046;52.074;4.748;2022-08-05T08:15:05;3.78;;;0.77;;
30233;SDS011;17046;52.074;4.748;2022-08-05T08:17:31;2.13;;;0.90;;
30233;SDS011;17046;52.074;4.748;2022-08-05T08:19:57;5.05;;;1.10;;
30233;SDS011;17046;52.074;4.748;2022-08-05T08:22:24;2.40;;;0.82;;
30233;SDS011;17046;52.074;4.748;2022-08-05T08:24:50;4.10;;;0.80;;
30233;SDS011;17046;52.074;4.748;2022-08-05T08:27:16;3.58;;;0.85;;
30233;SDS011;17046;52.074;4.748;2022-08-05T08:29:41;4.03;;;0.80;;
30233;SDS011;17046;52.074;4.748;2022-08-05T08:32:07;3.47;;;0.82;;
30233;SDS011;17046;52.074;4.748;2022-08-05T08:34:33;5.65;;;0.73;;
30233;SDS011;17046;52.074;4.748;2022-08-05T08:36:58;2.92;;;0.85;;
30233;SDS011;17046;52.074;4.748;2022-08-05T08:39:24;1.83;;;0.57;;
30233;SDS011;17046;52.074;4.748;2022-08-05T08:41:50;4.25;;;0.57;;
30233;SDS011;17046;52.074;4.748;2022-08-05T08:44:19;3.40;;;0.70;;
30233;SDS011;17046;52.074;4.748;2022-08-05T08:46:46;2.53;;;0.47;;
30233;SDS011;17046;52.074;4.748;2022-08-05T08:49:13;3.55;;;0.70;;
30233;SDS011;17046;52.074;4.748;2022-08-05T08:51:39;1.52;;;0.35;;
30233;SDS011;17046;52.074;4.748;2022-08-05T08:54:06;3.08;;;0.60;;
30233;SDS011;17046;52.074;4.748;2022-08-05T08:56:34;4.80;;;0.70;;
30233;SDS011;17046;52.074;4.748;2022-08-05T08:59:02;2.35;;;0.52;;
30233;SDS011;17046;52.074;4.748;2022-08-05T09:01:27;1.98;;;0.40;;
30233;SDS011;17046;52.074;4.748;2022-08-05T09:03:53;1.65;;;0.40;;
30233;SDS011;17046;52.074;4.748;2022-08-05T09:06:20;4.32;;;0.60;;
30233;SDS011;17046;52.074;4.748;2022-08-05T09:08:46;2.90;;;0.47;;
30233;SDS011;17046;52.074;4.748;2022-08-05T09:11:12;1.73;;;0.30;;
30233;SDS011;17046;52.074;4.748;2022-08-05T09:13:38;2.15;;;0.43;;
30233;SDS011;17046;52.074;4.748;2022-08-05T09:16:05;1.15;;;0.30;;
30233;SDS011;17046;52.074;4.748;2022-08-05T09:18:35;3.90;;;0.60;;
30233;SDS011;17046;52.074;4.748;2022-08-05T09:21:01;2.78;;;0.50;;
30233;SDS011;17046;52.074;4.748;2022-08-05T09:23:27;1.77;;;0.50;;
30233;SDS011;17046;52.074;4.748;2022-08-05T09:26:04;2.40;;;0.50;;
30233;SDS011;17046;52.074;4.748;2022-08-05T09:28:36;2.55;;;0.35;;
30233;SDS011;17046;52.074;4.748;2022-08-05T09:31:04;5.30;;;0.60;;
30233;SDS011;17046;52.074;4.748;2022-08-05T09:33:31;2.75;;;0.57;;
30233;SDS011;17046;52.074;4.748;2022-08-05T09:36:12;2.10;;;0.40;;
30233;SDS011;17046;52.074;4.748;2022-08-05T09:38:37;2.67;;;0.40;;
30233;SDS011;17046;52.074;4.748;2022-08-05T09:41:18;2.50;;;0.40;;
30233;SDS011;17046;52.074;4.748;2022-08-05T09:43:44;2.88;;;0.50;;
30233;SDS011;17046;52.074;4.748;2022-08-05T09:49:09;1.73;;;0.40;;
30233;SDS011;17046;52.074;4.748;2022-08-05T09:51:46;2.67;;;0.40;;
30233;SDS011;17046;52.074;4.748;2022-08-05T09:54:12;8.13;;;0.95;;
30233;SDS011;17046;52.074;4.748;2022-08-05T09:56:39;1.15;;;0.35;;
30233;SDS011;17046;52.074;4.748;2022-08-05T09:59:11;1.63;;;0.38;;
30233;SDS011;17046;52.074;4.748;2022-08-05T10:01:40;6.93;;;0.70;;
30233;SDS011;17046;52.074;4.748;2022-08-05T10:04:08;2.25;;;0.40;;
30233;SDS011;17046;52.074;4.748;2022-08-05T10:06:41;3.28;;;0.70;;
30233;SDS011;17046;52.074;4.748;2022-08-05T10:09:17;9.13;;;0.60;;
30233;SDS011;17046;52.074;4.748;2022-08-05T10:11:46;5.90;;;0.63;;
30233;SDS011;17046;52.074;4.748;2022-08-05T10:14:22;2.60;;;0.50;;
30233;SDS011;17046;52.074;4.748;2022-08-05T10:16:49;2.67;;;0.40;;
30233;SDS011;17046;52.074;4.748;2022-08-05T10:19:15;2.30;;;0.50;;
30233;SDS011;17046;52.074;4.748;2022-08-05T10:21:41;1.27;;;0.47;;
30233;SDS011;17046;52.074;4.748;2022-08-05T10:24:07;7.07;;;0.50;;
30233;SDS011;17046;52.074;4.748;2022-08-05T10:26:37;2.42;;;0.40;;
30233;SDS011;17046;52.074;4.748;2022-08-05T10:29:06;2.35;;;0.50;;
30233;SDS011;17046;52.074;4.748;2022-08-05T10:31:32;2.20;;;0.52;;
30233;SDS011;17046;52.074;4.748;2022-08-05T10:33:57;2.65;;;0.40;;
30233;SDS011;17046;52.074;4.748;2022-08-05T10:36:23;1.95;;;0.52;;
30233;SDS011;17046;52.074;4.748;2022-08-05T10:38:49;1.13;;;0.30;;
30233;SDS011;17046;52.074;4.748;2022-08-05T10:41:27;4.07;;;0.65;;
30233;SDS011;17046;52.074;4.748;2022-08-05T10:44:15;1.30;;;0.50;;
30233;SDS011;17046;52.074;4.748;2022-08-05T10:46:51;2.05;;;0.40;;
30233;SDS011;17046;52.074;4.748;2022-08-05T10:49:18;2.10;;;0.50;;
30233;SDS011;17046;52.074;4.748;2022-08-05T10:51:46;2.75;;;0.55;;
30233;SDS011;17046;52.074;4.748;2022-08-05T10:54:13;2.70;;;0.50;;
30233;SDS011;17046;52.074;4.748;2022-08-05T10:56:44;1.65;;;0.50;;
30233;SDS011;17046;52.074;4.748;2022-08-05T10:59:17;3.30;;;0.45;;
30233;SDS011;17046;52.074;4.748;2022-08-05T11:02:07;2.35;;;0.30;;
30233;SDS011;17046;52.074;4.748;2022-08-05T11:04:47;1.73;;;0.40;;
30233;SDS011;17046;52.074;4.748;2022-08-05T11:07:18;1.83;;;0.57;;
30233;SDS011;17046;52.074;4.748;2022-08-05T11:12:57;2.05;;;0.30;;
30233;SDS011;17046;52.074;4.748;2022-08-05T11:15:08;3.97;;;0.50;;
30233;SDS011;17046;52.074;4.748;2022-08-05T11:17:44;1.17;;;0.43;;
30233;SDS011;17046;52.074;4.748;2022-08-05T11:22:58;1.85;;;0.38;;
30233;SDS011;17046;52.074;4.748;2022-08-05T11:33:24;1.85;;;0.20;;
30233;SDS011;17046;52.074;4.748;2022-08-05T11:36:03;1.38;;;0.35;;
30233;SDS011;17046;52.074;4.748;2022-08-05T11:38:51;1.25;;;0.30;;
30233;SDS011;17046;52.074;4.748;2022-08-05T11:41:21;2.53;;;0.40;;
30233;SDS011;17046;52.074;4.748;2022-08-05T11:44:04;1.23;;;0.40;;
30233;SDS011;17046;52.074;4.748;2022-08-05T11:46:40;3.33;;;0.43;;
30233;SDS011;17046;52.074;4.748;2022-08-05T11:49:09;2.40;;;0.32;;
30233;SDS011;17046;52.074;4.748;2022-08-05T11:51:40;3.60;;;0.40;;
30233;SDS011;17046;52.074;4.748;2022-08-05T11:54:10;3.83;;;0.50;;
30233;SDS011;17046;52.074;4.748;2022-08-05T11:59:11;1.48;;;0.30;;
30233;SDS011;17046;52.074;4.748;2022-08-05T12:01:50;0.77;;;0.40;;
30233;SDS011;17046;52.074;4.748;2022-08-05T12:04:17;0.82;;;0.40;;
30233;SDS011;17046;52.074;4.748;2022-08-05T12:06:43;3.42;;;0.47;;
30233;SDS011;17046;52.074;4.748;2022-08-05T12:09:08;2.05;;;0.40;;
30233;SDS011;17046;52.074;4.748;2022-08-05T12:11:34;0.93;;;0.30;;
30233;SDS011;17046;52.074;4.748;2022-08-05T12:16:26;1.70;;;0.30;;
30233;SDS011;17046;52.074;4.748;2022-08-05T12:18:55;2.97;;;0.20;;
30233;SDS011;17046;52.074;4.748;2022-08-05T12:26:16;0.57;;;0.30;;
30233;SDS011;17046;52.074;4.748;2022-08-05T12:28:42;2.45;;;0.30;;
30233;SDS011;17046;52.074;4.748;2022-08-05T12:31:07;0.93;;;0.43;;
30233;SDS011;17046;52.074;4.748;2022-08-05T12:33:33;1.80;;;0.40;;
30233;SDS011;17046;52.074;4.748;2022-08-05T12:35:59;0.68;;;0.30;;
30233;SDS011;17046;52.074;4.748;2022-08-05T12:38:26;1.13;;;0.32;;
30233;SDS011;17046;52.074;4.748;2022-08-05T12:40:52;1.20;;;0.30;;
30233;SDS011;17046;52.074;4.748;2022-08-05T12:43:19;2.55;;;0.50;;
30233;SDS011;17046;52.074;4.748;2022-08-05T12:45:52;1.30;;;0.45;;
30233;SDS011;17046;52.074;4.748;2022-08-05T12:48:21;1.70;;;0.40;;
30233;SDS011;17046;52.074;4.748;2022-08-05T12:53:42;3.85;;;0.50;;
30233;SDS011;17046;52.074;4.748;2022-08-05T12:56:15;2.60;;;0.55;;
30233;SDS011;17046;52.074;4.748;2022-08-05T12:58:42;1.52;;;0.30;;
30233;SDS011;17046;52.074;4.748;2022-08-05T13:01:08;1.85;;;0.30;;
30233;SDS011;17046;52.074;4.748;2022-08-05T13:03:37;3.28;;;0.40;;
30233;SDS011;17046;52.074;4.748;2022-08-05T13:06:05;0.63;;;0.40;;
30233;SDS011;17046;52.074;4.748;2022-08-05T13:08:31;1.88;;;0.40;;
30233;SDS011;17046;52.074;4.748;2022-08-05T13:11:00;1.30;;;0.35;;
30233;SDS011;17046;52.074;4.748;2022-08-05T13:13:26;1.63;;;0.50;;
30233;SDS011;17046;52.074;4.748;2022-08-05T13:15:52;3.20;;;0.30;;
30233;SDS011;17046;52.074;4.748;2022-08-05T13:18:18;4.75;;;0.45;;
30233;SDS011;17046;52.074;4.748;2022-08-05T13:20:44;1.33;;;0.30;;
30233;SDS011;17046;52.074;4.748;2022-08-05T13:23:10;1.65;;;0.30;;
30233;SDS011;17046;52.074;4.748;2022-08-05T13:25:36;3.33;;;0.55;;
30233;SDS011;17046;52.074;4.748;2022-08-05T13:28:01;0.65;;;0.20;;
30233;SDS011;17046;52.074;4.748;2022-08-05T13:30:28;2.15;;;0.30;;
30233;SDS011;17046;52.074;4.748;2022-08-05T13:32:54;1.00;;;0.30;;
30233;SDS011;17046;52.074;4.748;2022-08-05T13:35:20;2.10;;;0.30;;
30233;SDS011;17046;52.074;4.748;2022-08-05T13:37:46;1.60;;;0.20;;
30233;SDS011;17046;52.074;4.748;2022-08-05T13:40:12;2.83;;;0.45;;
30233;SDS011;17046;52.074;4.748;2022-08-05T13:42:39;3.70;;;0.40;;
30233;SDS011;17046;52.074;4.748;2022-08-05T13:45:05;1.67;;;0.40;;
30233;SDS011;17046;52.074;4.748;2022-08-05T13:47:32;1.13;;;0.30;;
30233;SDS011;17046;52.074;4.748;2022-08-05T13:49:58;2.60;;;0.45;;
30233;SDS011;17046;52.074;4.748;2022-08-05T13:52:24;1.58;;;0.47;;
30233;SDS011;17046;52.074;4.748;2022-08-05T13:54:51;1.85;;;0.20;;
30233;SDS011;17046;52.074;4.748;2022-08-05T13:57:17;2.78;;;0.50;;
30233;SDS011;17046;52.074;4.748;2022-08-05T13:59:43;4.68;;;0.38;;
30233;SDS011;17046;52.074;4.748;2022-08-05T14:02:10;3.22;;;0.50;;
30233;SDS011;17046;52.074;4.748;2022-08-05T14:04:46;4.05;;;0.65;;
30233;SDS011;17046;52.074;4.748;2022-08-05T14:07:34;1.83;;;0.60;;
30233;SDS011;17046;52.074;4.748;2022-08-05T14:10:14;2.90;;;0.55;;
30233;SDS011;17046;52.074;4.748;2022-08-05T14:12:41;3.33;;;0.50;;
30233;SDS011;17046;52.074;4.748;2022-08-05T14:15:08;3.50;;;0.75;;
30233;SDS011;17046;52.074;4.748;2022-08-05T14:17:34;1.92;;;0.50;;
30233;SDS011;17046;52.074;4.748;2022-08-05T14:20:00;3.22;;;0.65;;
30233;SDS011;17046;52.074;4.748;2022-08-05T14:22:25;3.22;;;0.60;;
30233;SDS011;17046;52.074;4.748;2022-08-05T14:24:51;2.47;;;0.40;;
30233;SDS011;17046;52.074;4.748;2022-08-05T14:27:16;2.90;;;0.60;;
30233;SDS011;17046;52.074;4.748;2022-08-05T14:29:42;4.40;;;0.60;;
30233;SDS011;17046;52.074;4.748;2022-08-05T14:32:07;4.15;;;0.57;;
30233;SDS011;17046;52.074;4.748;2022-08-05T14:34:33;4.07;;;0.63;;
30233;SDS011;17046;52.074;4.748;2022-08-05T14:36:59;3.15;;;0.70;;
30233;SDS011;17046;52.074;4.748;2022-08-05T14:39:25;4.13;;;1.02;;
30233;SDS011;17046;52.074;4.748;2022-08-05T14:41:50;3.65;;;0.60;;
30233;SDS011;17046;52.074;4.748;2022-08-05T14:44:16;4.28;;;0.60;;
30233;SDS011;17046;52.074;4.748;2022-08-05T14:46:42;3.83;;;0.75;;
30233;SDS011;17046;52.074;4.748;2022-08-05T14:49:08;3.97;;;0.77;;
30233;SDS011;17046;52.074;4.748;2022-08-05T14:51:34;5.45;;;0.77;;
30233;SDS011;17046;52.074;4.748;2022-08-05T14:54:01;3.45;;;0.60;;
30233;SDS011;17046;52.074;4.748;2022-08-05T14:56:26;4.53;;;0.75;;
30233;SDS011;17046;52.074;4.748;2022-08-05T14:58:52;5.63;;;1.17;;
30233;SDS011;17046;52.074;4.748;2022-08-05T15:01:18;4.90;;;0.65;;
30233;SDS011;17046;52.074;4.748;2022-08-05T15:03:43;6.50;;;0.77;;
30233;SDS011;17046;52.074;4.748;2022-08-05T15:06:09;2.72;;;0.88;;
30233;SDS011;17046;52.074;4.748;2022-08-05T15:08:35;4.15;;;0.75;;
30233;SDS011;17046;52.074;4.748;2022-08-05T15:11:01;1.48;;;0.50;;
30233;SDS011;17046;52.074;4.748;2022-08-05T15:13:27;3.30;;;0.55;;
30233;SDS011;17046;52.074;4.748;2022-08-05T15:15:53;3.28;;;0.57;;
30233;SDS011;17046;52.074;4.748;2022-08-05T15:18:19;3.22;;;0.68;;
30233;SDS011;17046;52.074;4.748;2022-08-05T15:20:45;2.60;;;0.63;;
30233;SDS011;17046;52.074;4.748;2022-08-05T15:23:11;4.97;;;0.73;;
30233;SDS011;17046;52.074;4.748;2022-08-05T15:25:37;1.88;;;0.60;;